sensor_id;sensor_type;location;lat;lon;timestamp;P1;durP1;ratioP1;P2;durP2;ratioP2
73840;SDS011;62183;49.006;12.102;2022-08-19T00:02:17;22.33;;;20.13;;
73840;SDS011;62183;49.006;12.102;2022-08-19T00:04:43;22.90;;;20.57;;
73840;SDS011;62183;49.006;12.102;2022-08-19T00:07:08;24.70;;;21.07;;
73840;SDS011;62183;49.006;12.102;2022-08-19T00:09:33;25.47;;;22.17;;
73840;SDS011;62183;49.006;12.102;2022-08-19T00:11:59;24.85;;;22.25;;
73840;SDS011;62183;49.006;12.102;2022-08-19T00:14:24;23.77;;;21.38;;
73840;SDS011;62183;49.006;12.102;2022-08-19T00:16:50;24.75;;;21.85;;
73840;SDS011;62183;49.006;12.102;2022-08-19T00:19:15;24.58;;;22.02;;
73840;SDS011;62183;49.006;12.102;2022-08-19T00:21:41;24.33;;;21.73;;
73840;SDS011;62183;49.006;12.102;2022-08-19T00:24:07;23.38;;;20.95;;
73840;SDS011;62183;49.006;12.102;2022-08-19T00:26:32;24.63;;;22.05;;
73840;SDS011;62183;49.006;12.102;2022-08-19T00:28:58;25.40;;;22.63;;
73840;SDS011;62183;49.006;12.102;2022-08-19T00:31:23;25.07;;;22.63;;
73840;SDS011;62183;49.006;12.102;2022-08-19T00:33:48;27.07;;;23.10;;
73840;SDS011;62183;49.006;12.102;2022-08-19T00:36:13;24.93;;;22.37;;
73840;SDS011;62183;49.006;12.102;2022-08-19T00:38:39;24.47;;;21.97;;
73840;SDS011;62183;49.006;12.102;2022-08-19T00:41:05;25.02;;;22.63;;
73840;SDS011;62183;49.006;12.102;2022-08-19T00:43:30;24.90;;;22.35;;
73840;SDS011;62183;49.006;12.102;2022-08-19T00:45:56;26.02;;;23.23;;
73840;SDS011;62183;49.006;12.102;2022-08-19T00:48:21;24.40;;;22.00;;
73840;SDS011;62183;49.006;12.102;2022-08-19T00:50:47;24.40;;;21.90;;
73840;SDS011;62183;49.006;12.102;2022-08-19T00:53:14;23.13;;;20.63;;
73840;SDS011;62183;49.006;12.102;2022-08-19T00:55:40;24.42;;;22.00;;
73840;SDS011;62183;49.006;12.102;2022-08-19T00:58:08;24.80;;;22.30;;
73840;SDS011;62183;49.006;12.102;2022-08-19T01:00:34;24.75;;;22.30;;
73840;SDS011;62183;49.006;12.102;2022-08-19T01:02:59;24.80;;;22.30;;
73840;SDS011;62183;49.006;12.102;2022-08-19T01:05:26;23.83;;;21.37;;
73840;SDS011;62183;49.006;12.102;2022-08-19T01:07:51;24.98;;;22.35;;
73840;SDS011;62183;49.006;12.102;2022-08-19T01:10:19;24.23;;;21.77;;
73840;SDS011;62183;49.006;12.102;2022-08-19T01:12:45;23.33;;;21.02;;
73840;SDS011;62183;49.006;12.102;2022-08-19T01:15:11;22.15;;;19.63;;
73840;SDS011;62183;49.006;12.102;2022-08-19T01:17:38;23.05;;;20.92;;
73840;SDS011;62183;49.006;12.102;2022-08-19T01:20:04;22.52;;;20.33;;
73840;SDS011;62183;49.006;12.102;2022-08-19T01:24:54;20.40;;;18.30;;
73840;SDS011;62183;49.006;12.102;2022-08-19T01:27:20;23.63;;;21.23;;
73840;SDS011;62183;49.006;12.102;2022-08-19T01:29:45;23.80;;;21.40;;
73840;SDS011;62183;49.006;12.102;2022-08-19T01:32:14;23.05;;;20.73;;
73840;SDS011;62183;49.006;12.102;2022-08-19T01:34:40;24.00;;;21.58;;
73840;SDS011;62183;49.006;12.102;2022-08-19T01:37:07;22.40;;;20.20;;
73840;SDS011;62183;49.006;12.102;2022-08-19T01:39:33;23.35;;;21.05;;
73840;SDS011;62183;49.006;12.102;2022-08-19T01:41:58;23.15;;;20.77;;
73840;SDS011;62183;49.006;12.102;2022-08-19T01:44:23;24.00;;;21.60;;
73840;SDS011;62183;49.006;12.102;2022-08-19T01:46:49;23.73;;;21.23;;
73840;SDS011;62183;49.006;12.102;2022-08-19T01:49:14;24.13;;;21.73;;
73840;SDS011;62183;49.006;12.102;2022-08-19T01:51:41;23.17;;;20.88;;
73840;SDS011;62183;49.006;12.102;2022-08-19T01:54:07;24.37;;;21.53;;
73840;SDS011;62183;49.006;12.102;2022-08-19T01:56:32;24.63;;;22.05;;
73840;SDS011;62183;49.006;12.102;2022-08-19T01:59:00;24.97;;;22.27;;
73840;SDS011;62183;49.006;12.102;2022-08-19T02:01:26;24.55;;;22.17;;
73840;SDS011;62183;49.006;12.102;2022-08-19T02:03:51;26.30;;;23.47;;
73840;SDS011;62183;49.006;12.102;2022-08-19T02:06:16;26.10;;;23.17;;
73840;SDS011;62183;49.006;12.102;2022-08-19T02:08:42;22.90;;;20.57;;
73840;SDS011;62183;49.006;12.102;2022-08-19T02:11:07;19.90;;;18.00;;
73840;SDS011;62183;49.006;12.102;2022-08-19T02:13:33;22.93;;;20.63;;
73840;SDS011;62183;49.006;12.102;2022-08-19T02:15:58;21.80;;;19.60;;
73840;SDS011;62183;49.006;12.102;2022-08-19T02:18:24;21.47;;;19.27;;
73840;SDS011;62183;49.006;12.102;2022-08-19T02:20:49;23.90;;;21.53;;
73840;SDS011;62183;49.006;12.102;2022-08-19T02:23:14;24.43;;;21.90;;
73840;SDS011;62183;49.006;12.102;2022-08-19T02:25:40;24.17;;;21.77;;
73840;SDS011;62183;49.006;12.102;2022-08-19T02:28:06;24.13;;;21.67;;
73840;SDS011;62183;49.006;12.102;2022-08-19T02:30:31;25.00;;;22.37;;
73840;SDS011;62183;49.006;12.102;2022-08-19T02:32:56;25.33;;;22.23;;
73840;SDS011;62183;49.006;12.102;2022-08-19T02:35:21;24.93;;;22.37;;
73840;SDS011;62183;49.006;12.102;2022-08-19T02:37:47;22.03;;;19.93;;
73840;SDS011;62183;49.006;12.102;2022-08-19T02:40:12;24.85;;;22.15;;
73840;SDS011;62183;49.006;12.102;2022-08-19T02:42:38;24.65;;;22.08;;
73840;SDS011;62183;49.006;12.102;2022-08-19T02:45:03;20.88;;;18.92;;
73840;SDS011;62183;49.006;12.102;2022-08-19T02:47:29;24.98;;;22.17;;
73840;SDS011;62183;49.006;12.102;2022-08-19T02:49:54;25.53;;;21.63;;
73840;SDS011;62183;49.006;12.102;2022-08-19T02:52:19;24.57;;;21.93;;
73840;SDS011;62183;49.006;12.102;2022-08-19T02:54:44;23.93;;;21.43;;
73840;SDS011;62183;49.006;12.102;2022-08-19T02:57:09;24.30;;;21.77;;
73840;SDS011;62183;49.006;12.102;2022-08-19T02:59:35;22.53;;;20.30;;
73840;SDS011;62183;49.006;12.102;2022-08-19T03:02:00;21.60;;;19.40;;
73840;SDS011;62183;49.006;12.102;2022-08-19T03:04:25;22.07;;;19.87;;
73840;SDS011;62183;49.006;12.102;2022-08-19T03:06:51;22.35;;;20.30;;
73840;SDS011;62183;49.006;12.102;2022-08-19T03:09:17;23.75;;;21.05;;
73840;SDS011;62183;49.006;12.102;2022-08-19T03:11:42;21.02;;;19.05;;
73840;SDS011;62183;49.006;12.102;2022-08-19T03:14:08;22.53;;;20.33;;
73840;SDS011;62183;49.006;12.102;2022-08-19T03:16:35;22.10;;;19.98;;
73840;SDS011;62183;49.006;12.102;2022-08-19T03:19:00;22.02;;;19.63;;
73840;SDS011;62183;49.006;12.102;2022-08-19T03:21:27;23.33;;;21.02;;
73840;SDS011;62183;49.006;12.102;2022-08-19T03:23:59;20.67;;;18.60;;
73840;SDS011;62183;49.006;12.102;2022-08-19T03:26:25;22.80;;;20.50;;
73840;SDS011;62183;49.006;12.102;2022-08-19T03:28:50;21.75;;;19.42;;
73840;SDS011;62183;49.006;12.102;2022-08-19T03:31:17;20.00;;;18.17;;
73840;SDS011;62183;49.006;12.102;2022-08-19T03:33:43;21.98;;;19.77;;
73840;SDS011;62183;49.006;12.102;2022-08-19T03:36:09;21.00;;;19.10;;
73840;SDS011;62183;49.006;12.102;2022-08-19T03:38:35;20.73;;;18.77;;
73840;SDS011;62183;49.006;12.102;2022-08-19T03:41:05;20.17;;;18.27;;
73840;SDS011;62183;49.006;12.102;2022-08-19T03:43:30;20.38;;;18.27;;
73840;SDS011;62183;49.006;12.102;2022-08-19T03:46:03;20.40;;;18.50;;
73840;SDS011;62183;49.006;12.102;2022-08-19T03:48:28;21.85;;;19.65;;
73840;SDS011;62183;49.006;12.102;2022-08-19T03:50:54;19.00;;;17.10;;
73840;SDS011;62183;49.006;12.102;2022-08-19T03:53:19;20.27;;;18.30;;
73840;SDS011;62183;49.006;12.102;2022-08-19T03:55:44;20.27;;;18.37;;
73840;SDS011;62183;49.006;12.102;2022-08-19T03:58:09;20.13;;;18.13;;
73840;SDS011;62183;49.006;12.102;2022-08-19T04:00:34;19.90;;;18.00;;
73840;SDS011;62183;49.006;12.102;2022-08-19T04:03:00;18.83;;;17.13;;
73840;SDS011;62183;49.006;12.102;2022-08-19T04:05:26;19.07;;;17.17;;
73840;SDS011;62183;49.006;12.102;2022-08-19T04:07:51;20.05;;;18.13;;
73840;SDS011;62183;49.006;12.102;2022-08-19T04:10:16;20.20;;;18.23;;
73840;SDS011;62183;49.006;12.102;2022-08-19T04:12:42;19.03;;;17.20;;
73840;SDS011;62183;49.006;12.102;2022-08-19T04:15:07;19.33;;;17.43;;
73840;SDS011;62183;49.006;12.102;2022-08-19T04:17:32;19.15;;;17.25;;
73840;SDS011;62183;49.006;12.102;2022-08-19T04:19:57;20.20;;;18.30;;
73840;SDS011;62183;49.006;12.102;2022-08-19T04:22:23;20.07;;;18.27;;
73840;SDS011;62183;49.006;12.102;2022-08-19T04:24:48;20.50;;;18.50;;
73840;SDS011;62183;49.006;12.102;2022-08-19T04:27:13;19.03;;;17.13;;
73840;SDS011;62183;49.006;12.102;2022-08-19T04:29:38;16.07;;;14.63;;
73840;SDS011;62183;49.006;12.102;2022-08-19T04:32:03;17.30;;;15.80;;
73840;SDS011;62183;49.006;12.102;2022-08-19T04:34:29;16.70;;;15.23;;
73840;SDS011;62183;49.006;12.102;2022-08-19T04:36:54;19.43;;;17.60;;
73840;SDS011;62183;49.006;12.102;2022-08-19T04:39:21;18.75;;;17.08;;
73840;SDS011;62183;49.006;12.102;2022-08-19T04:41:46;19.92;;;18.05;;
73840;SDS011;62183;49.006;12.102;2022-08-19T04:44:12;20.20;;;18.20;;
73840;SDS011;62183;49.006;12.102;2022-08-19T04:46:37;19.40;;;17.52;;
73840;SDS011;62183;49.006;12.102;2022-08-19T04:49:03;20.45;;;18.45;;
73840;SDS011;62183;49.006;12.102;2022-08-19T04:51:29;19.13;;;17.38;;
73840;SDS011;62183;49.006;12.102;2022-08-19T04:53:54;20.73;;;18.63;;
73840;SDS011;62183;49.006;12.102;2022-08-19T04:56:19;20.53;;;18.53;;
73840;SDS011;62183;49.006;12.102;2022-08-19T04:58:45;20.42;;;18.42;;
73840;SDS011;62183;49.006;12.102;2022-08-19T05:01:14;19.07;;;17.37;;
73840;SDS011;62183;49.006;12.102;2022-08-19T05:03:41;21.13;;;19.13;;
73840;SDS011;62183;49.006;12.102;2022-08-19T05:06:07;21.10;;;19.10;;
73840;SDS011;62183;49.006;12.102;2022-08-19T05:08:34;21.15;;;19.15;;
73840;SDS011;62183;49.006;12.102;2022-08-19T05:10:59;21.65;;;19.65;;
73840;SDS011;62183;49.006;12.102;2022-08-19T05:13:25;20.20;;;18.30;;
73840;SDS011;62183;49.006;12.102;2022-08-19T05:15:54;20.63;;;18.63;;
73840;SDS011;62183;49.006;12.102;2022-08-19T05:18:20;20.13;;;18.20;;
73840;SDS011;62183;49.006;12.102;2022-08-19T05:20:45;20.63;;;18.67;;
73840;SDS011;62183;49.006;12.102;2022-08-19T05:23:10;21.70;;;19.60;;
73840;SDS011;62183;49.006;12.102;2022-08-19T05:25:38;21.83;;;19.58;;
73840;SDS011;62183;49.006;12.102;2022-08-19T05:28:04;19.58;;;17.80;;
73840;SDS011;62183;49.006;12.102;2022-08-19T05:30:29;21.50;;;19.30;;
73840;SDS011;62183;49.006;12.102;2022-08-19T05:32:54;20.03;;;18.03;;
73840;SDS011;62183;49.006;12.102;2022-08-19T05:35:19;19.37;;;17.47;;
73840;SDS011;62183;49.006;12.102;2022-08-19T05:37:44;19.80;;;17.90;;
73840;SDS011;62183;49.006;12.102;2022-08-19T05:40:10;20.13;;;18.27;;
73840;SDS011;62183;49.006;12.102;2022-08-19T05:42:35;19.55;;;17.65;;
73840;SDS011;62183;49.006;12.102;2022-08-19T05:45:00;19.67;;;17.73;;
73840;SDS011;62183;49.006;12.102;2022-08-19T05:47:25;20.20;;;18.10;;
73840;SDS011;62183;49.006;12.102;2022-08-19T05:49:51;18.40;;;16.77;;
73840;SDS011;62183;49.006;12.102;2022-08-19T05:52:16;19.92;;;18.02;;
73840;SDS011;62183;49.006;12.102;2022-08-19T05:54:42;18.90;;;17.20;;
73840;SDS011;62183;49.006;12.102;2022-08-19T05:57:07;18.67;;;16.92;;
73840;SDS011;62183;49.006;12.102;2022-08-19T05:59:33;18.83;;;17.02;;
73840;SDS011;62183;49.006;12.102;2022-08-19T06:01:58;19.92;;;18.02;;
73840;SDS011;62183;49.006;12.102;2022-08-19T06:04:23;21.27;;;19.17;;
73840;SDS011;62183;49.006;12.102;2022-08-19T06:06:49;19.73;;;17.73;;
73840;SDS011;62183;49.006;12.102;2022-08-19T06:09:15;20.17;;;18.17;;
73840;SDS011;62183;49.006;12.102;2022-08-19T06:11:44;20.27;;;18.47;;
73840;SDS011;62183;49.006;12.102;2022-08-19T06:14:11;19.55;;;17.65;;
73840;SDS011;62183;49.006;12.102;2022-08-19T06:16:37;20.35;;;18.35;;
73840;SDS011;62183;49.006;12.102;2022-08-19T06:19:04;18.92;;;17.20;;
73840;SDS011;62183;49.006;12.102;2022-08-19T06:21:30;19.63;;;17.73;;
73840;SDS011;62183;49.006;12.102;2022-08-19T06:23:55;19.20;;;17.30;;
73840;SDS011;62183;49.006;12.102;2022-08-19T06:26:21;18.20;;;16.52;;
73840;SDS011;62183;49.006;12.102;2022-08-19T06:28:46;19.47;;;17.40;;
73840;SDS011;62183;49.006;12.102;2022-08-19T06:31:13;19.50;;;17.48;;
73840;SDS011;62183;49.006;12.102;2022-08-19T06:33:38;18.70;;;17.02;;
73840;SDS011;62183;49.006;12.102;2022-08-19T06:36:03;19.93;;;17.93;;
73840;SDS011;62183;49.006;12.102;2022-08-19T06:38:28;19.23;;;17.42;;
73840;SDS011;62183;49.006;12.102;2022-08-19T06:41:01;20.07;;;18.17;;
73840;SDS011;62183;49.006;12.102;2022-08-19T06:43:26;19.70;;;17.83;;
73840;SDS011;62183;49.006;12.102;2022-08-19T06:45:51;19.27;;;17.40;;
73840;SDS011;62183;49.006;12.102;2022-08-19T06:48:16;18.93;;;17.13;;
73840;SDS011;62183;49.006;12.102;2022-08-19T06:50:42;19.10;;;17.33;;
73840;SDS011;62183;49.006;12.102;2022-08-19T06:53:07;18.43;;;16.63;;
73840;SDS011;62183;49.006;12.102;2022-08-19T06:55:32;18.43;;;16.80;;
73840;SDS011;62183;49.006;12.102;2022-08-19T06:57:57;18.97;;;17.17;;
73840;SDS011;62183;49.006;12.102;2022-08-19T07:00:22;18.67;;;16.97;;
73840;SDS011;62183;49.006;12.102;2022-08-19T07:02:47;18.73;;;16.83;;
73840;SDS011;62183;49.006;12.102;2022-08-19T07:05:13;19.20;;;17.50;;
73840;SDS011;62183;49.006;12.102;2022-08-19T07:07:38;20.23;;;18.23;;
73840;SDS011;62183;49.006;12.102;2022-08-19T07:10:03;20.53;;;18.43;;
73840;SDS011;62183;49.006;12.102;2022-08-19T07:12:29;18.88;;;17.08;;
73840;SDS011;62183;49.006;12.102;2022-08-19T07:14:54;21.17;;;19.17;;
73840;SDS011;62183;49.006;12.102;2022-08-19T07:17:20;20.67;;;18.67;;
73840;SDS011;62183;49.006;12.102;2022-08-19T07:19:45;20.87;;;18.87;;
73840;SDS011;62183;49.006;12.102;2022-08-19T07:22:10;20.33;;;18.13;;
73840;SDS011;62183;49.006;12.102;2022-08-19T07:24:36;19.50;;;17.53;;
73840;SDS011;62183;49.006;12.102;2022-08-19T07:27:02;18.98;;;17.10;;
73840;SDS011;62183;49.006;12.102;2022-08-19T07:29:28;21.40;;;19.15;;
73840;SDS011;62183;49.006;12.102;2022-08-19T07:31:54;23.60;;;19.35;;
73840;SDS011;62183;49.006;12.102;2022-08-19T07:34:19;21.98;;;19.88;;
73840;SDS011;62183;49.006;12.102;2022-08-19T07:36:45;21.40;;;19.20;;
73840;SDS011;62183;49.006;12.102;2022-08-19T07:39:11;20.55;;;18.45;;
73840;SDS011;62183;49.006;12.102;2022-08-19T07:41:37;21.27;;;19.15;;
73840;SDS011;62183;49.006;12.102;2022-08-19T07:44:02;21.10;;;18.90;;
73840;SDS011;62183;49.006;12.102;2022-08-19T07:46:28;22.02;;;19.73;;
73840;SDS011;62183;49.006;12.102;2022-08-19T07:48:53;20.53;;;18.20;;
73840;SDS011;62183;49.006;12.102;2022-08-19T07:51:19;20.87;;;18.87;;
73840;SDS011;62183;49.006;12.102;2022-08-19T07:53:45;20.40;;;18.50;;
73840;SDS011;62183;49.006;12.102;2022-08-19T07:56:11;20.33;;;18.33;;
73840;SDS011;62183;49.006;12.102;2022-08-19T07:58:37;20.45;;;18.23;;
73840;SDS011;62183;49.006;12.102;2022-08-19T08:01:03;19.73;;;17.85;;
73840;SDS011;62183;49.006;12.102;2022-08-19T08:03:29;20.30;;;18.30;;
73840;SDS011;62183;49.006;12.102;2022-08-19T08:05:54;20.30;;;18.37;;
73840;SDS011;62183;49.006;12.102;2022-08-19T08:08:19;20.53;;;18.63;;
73840;SDS011;62183;49.006;12.102;2022-08-19T08:10:44;20.03;;;18.00;;
73840;SDS011;62183;49.006;12.102;2022-08-19T08:13:10;20.47;;;18.47;;
73840;SDS011;62183;49.006;12.102;2022-08-19T08:15:35;20.07;;;18.17;;
73840;SDS011;62183;49.006;12.102;2022-08-19T08:18:00;20.30;;;18.38;;
73840;SDS011;62183;49.006;12.102;2022-08-19T08:20:26;20.07;;;18.13;;
73840;SDS011;62183;49.006;12.102;2022-08-19T08:22:51;21.57;;;19.50;;
73840;SDS011;62183;49.006;12.102;2022-08-19T08:25:17;21.87;;;19.60;;
73840;SDS011;62183;49.006;12.102;2022-08-19T08:27:44;21.80;;;19.70;;
73840;SDS011;62183;49.006;12.102;2022-08-19T08:30:17;20.30;;;18.50;;
73840;SDS011;62183;49.006;12.102;2022-08-19T08:32:43;20.95;;;18.95;;
73840;SDS011;62183;49.006;12.102;2022-08-19T08:35:10;20.73;;;18.83;;
73840;SDS011;62183;49.006;12.102;2022-08-19T08:37:36;21.67;;;19.58;;
73840;SDS011;62183;49.006;12.102;2022-08-19T08:40:03;21.30;;;19.40;;
73840;SDS011;62183;49.006;12.102;2022-08-19T08:42:31;21.85;;;19.85;;
73840;SDS011;62183;49.006;12.102;2022-08-19T08:47:22;20.40;;;18.50;;
73840;SDS011;62183;49.006;12.102;2022-08-19T08:52:25;22.05;;;20.13;;
73840;SDS011;62183;49.006;12.102;2022-08-19T08:54:52;20.70;;;18.92;;
73840;SDS011;62183;49.006;12.102;2022-08-19T08:59:49;19.85;;;18.20;;
73840;SDS011;62183;49.006;12.102;2022-08-19T09:02:15;20.13;;;18.33;;
73840;SDS011;62183;49.006;12.102;2022-08-19T09:04:40;19.17;;;17.53;;
73840;SDS011;62183;49.006;12.102;2022-08-19T09:07:23;20.53;;;18.73;;
73840;SDS011;62183;49.006;12.102;2022-08-19T09:09:51;20.17;;;18.42;;
73840;SDS011;62183;49.006;12.102;2022-08-19T09:15:02;19.15;;;17.65;;
73840;SDS011;62183;49.006;12.102;2022-08-19T09:17:29;18.90;;;16.92;;
73840;SDS011;62183;49.006;12.102;2022-08-19T09:19:56;19.02;;;17.33;;
73840;SDS011;62183;49.006;12.102;2022-08-19T09:22:22;19.38;;;17.73;;
73840;SDS011;62183;49.006;12.102;2022-08-19T09:24:48;18.03;;;16.53;;
73840;SDS011;62183;49.006;12.102;2022-08-19T09:27:13;20.48;;;18.48;;
73840;SDS011;62183;49.006;12.102;2022-08-19T09:29:38;21.33;;;19.33;;
73840;SDS011;62183;49.006;12.102;2022-08-19T09:32:04;20.10;;;18.20;;
73840;SDS011;62183;49.006;12.102;2022-08-19T09:34:29;20.30;;;18.50;;
73840;SDS011;62183;49.006;12.102;2022-08-19T09:36:54;20.43;;;18.63;;
73840;SDS011;62183;49.006;12.102;2022-08-19T09:39:19;19.87;;;18.13;;
73840;SDS011;62183;49.006;12.102;2022-08-19T09:41:44;20.73;;;18.73;;
73840;SDS011;62183;49.006;12.102;2022-08-19T09:44:10;18.03;;;16.43;;
73840;SDS011;62183;49.006;12.102;2022-08-19T09:46:35;19.00;;;17.20;;
73840;SDS011;62183;49.006;12.102;2022-08-19T09:49:00;19.10;;;17.40;;
73840;SDS011;62183;49.006;12.102;2022-08-19T09:51:26;19.17;;;17.53;;
73840;SDS011;62183;49.006;12.102;2022-08-19T09:53:51;18.77;;;17.17;;
73840;SDS011;62183;49.006;12.102;2022-08-19T09:56:17;19.48;;;17.67;;
73840;SDS011;62183;49.006;12.102;2022-08-19T09:58:43;18.55;;;16.77;;
73840;SDS011;62183;49.006;12.102;2022-08-19T10:01:08;18.73;;;17.13;;
73840;SDS011;62183;49.006;12.102;2022-08-19T10:03:34;19.13;;;17.42;;
73840;SDS011;62183;49.006;12.102;2022-08-19T10:06:01;17.60;;;16.10;;
73840;SDS011;62183;49.006;12.102;2022-08-19T10:08:31;18.52;;;16.55;;
73840;SDS011;62183;49.006;12.102;2022-08-19T10:10:57;18.05;;;16.45;;
73840;SDS011;62183;49.006;12.102;2022-08-19T10:13:23;17.58;;;16.00;;
73840;SDS011;62183;49.006;12.102;2022-08-19T10:15:49;18.17;;;16.52;;
73840;SDS011;62183;49.006;12.102;2022-08-19T10:18:14;18.70;;;17.10;;
73840;SDS011;62183;49.006;12.102;2022-08-19T10:20:39;17.95;;;16.25;;
73840;SDS011;62183;49.006;12.102;2022-08-19T10:23:04;17.10;;;15.70;;
73840;SDS011;62183;49.006;12.102;2022-08-19T10:25:31;17.17;;;15.67;;
73840;SDS011;62183;49.006;12.102;2022-08-19T10:27:57;17.20;;;15.70;;
73840;SDS011;62183;49.006;12.102;2022-08-19T10:30:22;16.63;;;15.10;;
73840;SDS011;62183;49.006;12.102;2022-08-19T10:32:47;16.50;;;15.20;;
73840;SDS011;62183;49.006;12.102;2022-08-19T10:35:13;17.03;;;15.63;;
73840;SDS011;62183;49.006;12.102;2022-08-19T10:37:38;17.60;;;16.10;;
73840;SDS011;62183;49.006;12.102;2022-08-19T10:40:07;17.42;;;15.93;;
73840;SDS011;62183;49.006;12.102;2022-08-19T10:42:33;17.20;;;15.90;;
73840;SDS011;62183;49.006;12.102;2022-08-19T10:44:58;17.13;;;15.68;;
73840;SDS011;62183;49.006;12.102;2022-08-19T10:47:23;17.90;;;16.50;;
73840;SDS011;62183;49.006;12.102;2022-08-19T10:49:49;17.80;;;16.30;;
73840;SDS011;62183;49.006;12.102;2022-08-19T10:52:14;18.13;;;16.63;;
73840;SDS011;62183;49.006;12.102;2022-08-19T10:54:39;18.10;;;16.60;;
73840;SDS011;62183;49.006;12.102;2022-08-19T10:57:04;18.27;;;16.77;;
73840;SDS011;62183;49.006;12.102;2022-08-19T10:59:29;18.07;;;16.37;;
73840;SDS011;62183;49.006;12.102;2022-08-19T11:02:01;18.37;;;16.67;;
73840;SDS011;62183;49.006;12.102;2022-08-19T11:04:27;16.92;;;15.63;;
73840;SDS011;62183;49.006;12.102;2022-08-19T11:06:52;17.57;;;16.07;;
73840;SDS011;62183;49.006;12.102;2022-08-19T11:09:19;17.63;;;16.13;;
73840;SDS011;62183;49.006;12.102;2022-08-19T11:11:45;18.33;;;16.83;;
73840;SDS011;62183;49.006;12.102;2022-08-19T11:14:13;18.20;;;16.70;;
73840;SDS011;62183;49.006;12.102;2022-08-19T11:16:39;17.45;;;16.05;;
73840;SDS011;62183;49.006;12.102;2022-08-19T11:19:05;19.40;;;17.77;;
73840;SDS011;62183;49.006;12.102;2022-08-19T11:21:31;19.30;;;17.70;;
73840;SDS011;62183;49.006;12.102;2022-08-19T11:23:58;17.90;;;16.50;;
73840;SDS011;62183;49.006;12.102;2022-08-19T11:26:24;18.85;;;17.15;;
73840;SDS011;62183;49.006;12.102;2022-08-19T11:28:49;18.55;;;16.98;;
73840;SDS011;62183;49.006;12.102;2022-08-19T11:31:16;20.25;;;18.45;;
73840;SDS011;62183;49.006;12.102;2022-08-19T11:33:42;20.38;;;18.42;;
73840;SDS011;62183;49.006;12.102;2022-08-19T11:36:07;19.60;;;17.88;;
73840;SDS011;62183;49.006;12.102;2022-08-19T11:38:33;19.60;;;17.73;;
73840;SDS011;62183;49.006;12.102;2022-08-19T11:40:59;20.05;;;18.20;;
73840;SDS011;62183;49.006;12.102;2022-08-19T11:43:25;21.10;;;19.05;;
73840;SDS011;62183;49.006;12.102;2022-08-19T11:45:50;21.10;;;19.00;;
73840;SDS011;62183;49.006;12.102;2022-08-19T11:48:15;21.97;;;19.80;;
73840;SDS011;62183;49.006;12.102;2022-08-19T11:50:40;21.40;;;19.20;;
73840;SDS011;62183;49.006;12.102;2022-08-19T11:53:05;20.30;;;18.27;;
73840;SDS011;62183;49.006;12.102;2022-08-19T11:55:31;20.70;;;18.67;;
73840;SDS011;62183;49.006;12.102;2022-08-19T11:57:56;21.87;;;19.67;;
73840;SDS011;62183;49.006;12.102;2022-08-19T12:00:21;20.20;;;18.20;;
73840;SDS011;62183;49.006;12.102;2022-08-19T12:02:46;21.10;;;19.10;;
73840;SDS011;62183;49.006;12.102;2022-08-19T12:05:11;21.43;;;19.30;;
73840;SDS011;62183;49.006;12.102;2022-08-19T12:07:36;20.33;;;18.33;;
73840;SDS011;62183;49.006;12.102;2022-08-19T12:10:02;21.73;;;19.13;;
73840;SDS011;62183;49.006;12.102;2022-08-19T12:12:27;22.13;;;19.85;;
73840;SDS011;62183;49.006;12.102;2022-08-19T12:14:52;21.17;;;19.03;;
73840;SDS011;62183;49.006;12.102;2022-08-19T12:17:17;21.50;;;19.48;;
73840;SDS011;62183;49.006;12.102;2022-08-19T12:19:43;20.63;;;18.60;;
73840;SDS011;62183;49.006;12.102;2022-08-19T12:22:08;21.37;;;19.10;;
73840;SDS011;62183;49.006;12.102;2022-08-19T12:24:33;19.93;;;17.90;;
73840;SDS011;62183;49.006;12.102;2022-08-19T12:26:58;20.17;;;18.23;;
73840;SDS011;62183;49.006;12.102;2022-08-19T12:29:24;21.63;;;19.33;;
73840;SDS011;62183;49.006;12.102;2022-08-19T12:31:49;22.05;;;19.05;;
73840;SDS011;62183;49.006;12.102;2022-08-19T12:34:14;21.95;;;19.10;;
73840;SDS011;62183;49.006;12.102;2022-08-19T12:36:40;21.00;;;18.77;;
73840;SDS011;62183;49.006;12.102;2022-08-19T12:39:05;21.27;;;18.97;;
73840;SDS011;62183;49.006;12.102;2022-08-19T12:41:30;20.60;;;18.60;;
73840;SDS011;62183;49.006;12.102;2022-08-19T12:43:55;20.33;;;18.33;;
73840;SDS011;62183;49.006;12.102;2022-08-19T12:46:20;20.53;;;18.53;;
73840;SDS011;62183;49.006;12.102;2022-08-19T12:48:45;19.93;;;17.67;;
73840;SDS011;62183;49.006;12.102;2022-08-19T12:51:12;19.87;;;17.97;;
73840;SDS011;62183;49.006;12.102;2022-08-19T12:53:38;20.45;;;18.25;;
73840;SDS011;62183;49.006;12.102;2022-08-19T12:56:03;20.75;;;18.58;;
73840;SDS011;62183;49.006;12.102;2022-08-19T12:58:29;21.48;;;18.50;;
73840;SDS011;62183;49.006;12.102;2022-08-19T13:00:54;20.73;;;18.77;;
73840;SDS011;62183;49.006;12.102;2022-08-19T13:03:19;20.37;;;18.47;;
73840;SDS011;62183;49.006;12.102;2022-08-19T13:05:44;20.77;;;18.67;;
73840;SDS011;62183;49.006;12.102;2022-08-19T13:08:09;21.63;;;19.50;;
73840;SDS011;62183;49.006;12.102;2022-08-19T13:10:35;21.70;;;19.40;;
73840;SDS011;62183;49.006;12.102;2022-08-19T13:13:05;21.50;;;19.25;;
73840;SDS011;62183;49.006;12.102;2022-08-19T13:15:33;21.60;;;19.50;;
73840;SDS011;62183;49.006;12.102;2022-08-19T13:17:58;21.23;;;19.20;;
73840;SDS011;62183;49.006;12.102;2022-08-19T13:20:24;21.30;;;19.20;;
73840;SDS011;62183;49.006;12.102;2022-08-19T13:22:49;20.45;;;18.55;;
73840;SDS011;62183;49.006;12.102;2022-08-19T13:25:14;20.87;;;18.97;;
73840;SDS011;62183;49.006;12.102;2022-08-19T13:27:40;21.65;;;19.48;;
73840;SDS011;62183;49.006;12.102;2022-08-19T13:30:06;20.77;;;18.77;;
73840;SDS011;62183;49.006;12.102;2022-08-19T13:32:32;22.45;;;20.25;;
73840;SDS011;62183;49.006;12.102;2022-08-19T13:34:57;21.77;;;19.60;;
73840;SDS011;62183;49.006;12.102;2022-08-19T13:37:22;22.50;;;20.40;;
73840;SDS011;62183;49.006;12.102;2022-08-19T13:39:48;23.03;;;20.60;;
73840;SDS011;62183;49.006;12.102;2022-08-19T13:42:13;22.63;;;20.43;;
73840;SDS011;62183;49.006;12.102;2022-08-19T13:44:38;22.10;;;19.90;;
73840;SDS011;62183;49.006;12.102;2022-08-19T13:47:04;24.07;;;20.50;;
73840;SDS011;62183;49.006;12.102;2022-08-19T13:49:29;22.30;;;20.20;;
73840;SDS011;62183;49.006;12.102;2022-08-19T13:51:54;21.53;;;19.43;;
73840;SDS011;62183;49.006;12.102;2022-08-19T13:54:19;21.50;;;19.53;;
73840;SDS011;62183;49.006;12.102;2022-08-19T13:56:45;21.47;;;19.33;;
73840;SDS011;62183;49.006;12.102;2022-08-19T13:59:10;21.08;;;19.17;;
73840;SDS011;62183;49.006;12.102;2022-08-19T14:01:36;21.02;;;19.13;;
73840;SDS011;62183;49.006;12.102;2022-08-19T14:04:02;21.73;;;19.83;;
73840;SDS011;62183;49.006;12.102;2022-08-19T14:06:27;21.65;;;19.75;;
73840;SDS011;62183;49.006;12.102;2022-08-19T14:08:52;20.27;;;18.57;;
73840;SDS011;62183;49.006;12.102;2022-08-19T14:11:17;20.20;;;18.50;;
73840;SDS011;62183;49.006;12.102;2022-08-19T14:13:43;20.92;;;19.02;;